KGUL

Gunnison

Gunnison, Texas, USA
METAR KGUL 182335Z AUTO 21010KT 10SM CLR 29/24 A3000 RMK A01
Observed Flight Rules
Aug-18 @ 23:35 UTC (11 minutes ago) Visual Flight Rules
Wind Visibility Clouds
210° at 10 knots 10 miles
  • Clear skies
Temperatures Readings
Current 29°C / 84°F
Dewpoint 24°C / 75°F
Humidity 74%
Altimeter 30" Hg
Pressure 1016 hPa
Elevation 30
METAR KGUL 182335Z AUTO 21010KT 10SM CLR 29/24 A3000 RMK A01
Observed Flight Rules
Aug-18 @ 23:35 UTC
(11 minutes ago)
VFR
Wind Visibility
210° at 10 knots 10 miles
Clouds
  • Clear skies
Temperature Dewpoint
29°C / 84°F 24°C / 75°F
Humidity Altimeter Pressure
74% 30" Hg 1016 hPa